VHYDD YSCO-YCNK

Flight info

Callsign VHYDD
Flight time 0h 22m
Altitude 5500
Route DCT
Aircraft BE36/L-BDFGLORY/S

Departure

Time 2026-04-25 05:57
Airport Scone Airport (YSCO)

Arrival

Time 2026-04-25 06:20
Airport Cessnock Airport (YCNK)
Time Latitude Longitude Altitude Speed Heading
2026-04-25 05:56 -32.03439 150.82628 753 ft 0 kts 209°
2026-04-25 05:56 -32.03446 150.82623 757 ft 5 kts 209°
2026-04-25 05:56 -32.03507 150.82658 754 ft 31 kts 124°
2026-04-25 05:56 -32.03739 150.83096 766 ft 84 kts 122°
2026-04-25 05:57 -32.04072 150.83731 948 ft 96 kts 123°
2026-04-25 05:57 -32.04434 150.84400 1202 ft 98 kts 127°
2026-04-25 05:57 -32.04806 150.85109 1441 ft 102 kts 126°
2026-04-25 05:57 -32.05307 150.85594 1833 ft 91 kts 155°
2026-04-25 05:58 -32.05957 150.85655 2013 ft 101 kts 174°
2026-04-25 05:58 -32.06680 150.85673 2225 ft 104 kts 170°
2026-04-25 05:58 -32.07403 150.85771 2426 ft 104 kts 159°
2026-04-25 05:58 -32.08074 150.86117 2640 ft 106 kts 147°
2026-04-25 05:59 -32.08725 150.86547 2839 ft 108 kts 146°
2026-04-25 05:59 -32.09382 150.87001 3045 ft 109 kts 146°
2026-04-25 05:59 -32.10040 150.87458 3235 ft 110 kts 145°
2026-04-25 05:59 -32.10704 150.87916 3429 ft 112 kts 145°
2026-04-25 06:00 -32.11386 150.88382 3606 ft 116 kts 146°
2026-04-25 06:00 -32.12096 150.88861 3791 ft 117 kts 146°
2026-04-25 06:00 -32.12813 150.89345 4001 ft 120 kts 146°
2026-04-25 06:00 -32.13552 150.89840 4215 ft 123 kts 146°
2026-04-25 06:01 -32.14292 150.90337 4418 ft 125 kts 147°
2026-04-25 06:01 -32.15051 150.90848 4633 ft 126 kts 145°
2026-04-25 06:01 -32.15819 150.91364 4842 ft 127 kts 145°
2026-04-25 06:01 -32.16592 150.91886 5055 ft 128 kts 145°
2026-04-25 06:02 -32.17378 150.92416 5210 ft 133 kts 144°
2026-04-25 06:02 -32.18199 150.92968 5342 ft 137 kts 147°
2026-04-25 06:02 -32.19027 150.93523 5453 ft 140 kts 147°
2026-04-25 06:02 -32.19906 150.94112 5494 ft 149 kts 146°
2026-04-25 06:03 -32.20827 150.94730 5494 ft 154 kts 146°
2026-04-25 06:03 -32.21778 150.95371 5489 ft 159 kts 147°
2026-04-25 06:03 -32.22751 150.96029 5473 ft 161 kts 146°
2026-04-25 06:03 -32.23716 150.96674 5464 ft 161 kts 146°
2026-04-25 06:04 -32.24691 150.97330 5438 ft 159 kts 145°
2026-04-25 06:04 -32.25653 150.97980 5462 ft 160 kts 146°
2026-04-25 06:04 -32.26620 150.98633 5474 ft 160 kts 145°
2026-04-25 06:04 -32.27581 150.99282 5484 ft 161 kts 146°
2026-04-25 06:05 -32.28557 150.99942 5489 ft 162 kts 146°
2026-04-25 06:05 -32.29539 151.00605 5476 ft 162 kts 146°
2026-04-25 06:05 -32.30517 151.01265 5484 ft 162 kts 146°
2026-04-25 06:05 -32.31500 151.01930 5496 ft 163 kts 147°
2026-04-25 06:06 -32.32483 151.02596 5508 ft 166 kts 147°
2026-04-25 06:06 -32.33488 151.03273 5500 ft 166 kts 146°
2026-04-25 06:06 -32.34496 151.03954 5503 ft 167 kts 146°
2026-04-25 06:06 -32.35508 151.04638 5498 ft 167 kts 147°
2026-04-25 06:07 -32.36507 151.05314 5492 ft 168 kts 145°
2026-04-25 06:07 -32.37520 151.05999 5495 ft 168 kts 146°
2026-04-25 06:07 -32.38541 151.06690 5490 ft 169 kts 146°
2026-04-25 06:07 -32.39564 151.07384 5496 ft 169 kts 146°
2026-04-25 06:08 -32.40592 151.08080 5493 ft 170 kts 147°
2026-04-25 06:08 -32.41606 151.08765 5496 ft 169 kts 146°
2026-04-25 06:08 -32.42624 151.09455 5464 ft 167 kts 147°
2026-04-25 06:08 -32.43630 151.10136 5487 ft 166 kts 146°
2026-04-25 06:09 -32.44632 151.10815 5491 ft 166 kts 147°
2026-04-25 06:09 -32.45636 151.11497 5497 ft 167 kts 146°
2026-04-25 06:09 -32.46633 151.12172 5498 ft 166 kts 146°
2026-04-25 06:09 -32.47635 151.12851 5495 ft 166 kts 146°
2026-04-25 06:10 -32.48636 151.13532 5497 ft 166 kts 147°
2026-04-25 06:10 -32.49643 151.14215 5496 ft 166 kts 146°
2026-04-25 06:10 -32.50641 151.14894 5418 ft 171 kts 147°
2026-04-25 06:10 -32.51699 151.15612 5273 ft 178 kts 147°
2026-04-25 06:11 -32.52786 151.16348 5142 ft 180 kts 147°
2026-04-25 06:11 -32.53873 151.17085 4989 ft 180 kts 147°
2026-04-25 06:11 -32.54959 151.17822 4827 ft 180 kts 146°
2026-04-25 06:11 -32.56043 151.18559 4668 ft 179 kts 146°
2026-04-25 06:12 -32.57124 151.19295 4514 ft 179 kts 146°
2026-04-25 06:12 -32.58191 151.20022 4367 ft 179 kts 146°
2026-04-25 06:12 -32.59273 151.20757 4215 ft 179 kts 146°
2026-04-25 06:12 -32.59991 151.21247 4112 ft 178 kts 147°
2026-04-25 06:13 -32.61421 151.22221 3912 ft 178 kts 147°
2026-04-25 06:13 -32.62499 151.22956 3760 ft 178 kts 146°
2026-04-25 06:13 -32.63563 151.23679 3611 ft 175 kts 146°
2026-04-25 06:14 -32.65316 151.24872 3331 ft 174 kts 146°
2026-04-25 06:14 -32.66703 151.25818 3090 ft 172 kts 146°
2026-04-25 06:14 -32.67393 151.26290 2977 ft 173 kts 146°
2026-04-25 06:14 -32.68442 151.27004 2798 ft 173 kts 146°
2026-04-25 06:15 -32.69484 151.27717 2616 ft 173 kts 147°
2026-04-25 06:15 -32.70532 151.28431 2441 ft 173 kts 147°
2026-04-25 06:15 -32.71565 151.29136 2288 ft 173 kts 147°
2026-04-25 06:15 -32.72612 151.29851 2112 ft 173 kts 148°
2026-04-25 06:16 -32.73660 151.30566 1945 ft 172 kts 147°
2026-04-25 06:16 -32.74721 151.31207 1762 ft 171 kts 156°
2026-04-25 06:16 -32.75882 151.31487 1667 ft 168 kts 167°
2026-04-25 06:16 -32.77013 151.31663 1694 ft 158 kts 168°
2026-04-25 06:17 -32.78039 151.31938 1709 ft 151 kts 154°
2026-04-25 06:17 -32.78869 151.32641 1673 ft 144 kts 126°
2026-04-25 06:17 -32.79233 151.33667 1604 ft 125 kts 96°
2026-04-25 06:17 -32.79337 151.34653 1478 ft 116 kts 97°
2026-04-25 06:18 -32.79060 151.35466 1405 ft 116 kts 37°
2026-04-25 06:18 -32.78250 151.35657 1275 ft 119 kts 13°
2026-04-25 06:18 -32.77463 151.35742 1262 ft 108 kts 11°
2026-04-25 06:18 -32.76764 151.35578 1132 ft 106 kts 326°
2026-04-25 06:19 -32.76537 151.34767 711 ft 108 kts 251°
2026-04-25 06:19 -32.77034 151.34274 483 ft 94 kts 177°
2026-04-25 06:19 -32.77657 151.34155 322 ft 88 kts 183°
2026-04-25 06:19 -32.78223 151.34055 211 ft 70 kts 180°
2026-04-25 06:20 -32.78578 151.33996 213 ft 25 kts 187°
2026-04-25 06:20 -32.78682 151.33968 214 ft 15 kts 231°
2026-04-25 06:20 -32.78661 151.33869 215 ft 11 kts 10°
2026-04-25 06:20 -32.78564 151.33885 216 ft 18 kts
2026-04-25 06:21 -32.78424 151.33910 211 ft 23 kts
2026-04-25 06:21 -32.78293 151.33929 212 ft 12 kts 358°
2026-04-25 06:21 -32.78262 151.33829 212 ft 16 kts 280°
2026-04-25 06:21 -32.78292 151.33802 214 ft 0 kts 99°